Hovedside
METAR-TAF:

METAR-TAF

Lufthavner :

Norrköping lufthavn

Norrköping, Sverige

breddegrad: 58-35N, lengdegrad: 016-09E, høyde over havet: 34 m

Gjeldene værobservasjon

Denne rapporten ble laget for 16 minutter siden, klokken 11:20 UTC
Vind 12 kt fra Vest-sørvest
Temperatur 5°C
Luftfuktighet 56%
Trykk 1006 hPa
Sikt 10 km eller mer
ingen skyer under 1500 m og ingen bygeskyer

METAR: ESSP 241120Z 24012KT CAVOK 05/M03 Q1006 R27/09//95

Tid: 12:36 (11:36 UTC)

Varsel

Denne rapporten ble laget for 3 timer og 6 minutter siden, klokken 08:30 UTC
Varsel gyldig fra 24. klokken 09 UTC til 24. klokken 18 UTC
Vind 8 kt fra Vest
Sikt 10 km eller mer
ingen skyer under 1500 m og ingen bygeskyer

TAF: ESSP 240830Z 2409/2418 27008KT CAVOK

Værobservasjoner og værvarsel for over 4000 flyplasser (METAR- og TAF-rapporter).

Tilgjengelige stasjoner er representert av de røde og gule prikkene på kartet.

Hold musepekeren over prikken for å se navnet på stasjonen.

Klikk så for å se værobservasjoner og -varsler.

For å forandre kartet kan du klikke på den grønne knappen med svart kryss for å zoome inn, på den grønne knappen med strek for å zoome ut, eller på de grønne pilene for å se tilstøtende kart.


METAR-TAF: